Time;durP1;ratioP1;P1;durP2;ratioP2;P2;SDS_P1;SDS_P2;PMS_P1;PMS_P2;Temp;Humidity;BMP_temperature;BMP_pressure;BME280_temperature;BME280_humidity;BME280_pressure;Samples;Min_cycle;Max_cycle;Signal;HPM_P1;HPM_P2
2022/08/05 00:01:32;;;;;;;5.78;2.78;;;22.40;99.90;;;;;;4979407;28;20195;-84
2022/08/05 00:03:58;;;;;;;5.90;2.65;;;22.20;99.90;;;;;;4980129;28;20180;-86
2022/08/05 00:06:24;;;;;;;4.13;2.50;;;22.10;99.90;;;;;;4979584;28;20176;-85
2022/08/05 00:08:49;;;;;;;4.00;2.50;;;22.10;99.90;;;;;;4979986;28;20211;-85
2022/08/05 00:11:15;;;;;;;6.35;3.05;;;22.00;99.90;;;;;;4979205;28;20677;-84
2022/08/05 00:13:43;;;;;;;7.25;3.20;;;22.00;99.90;;;;;;4979559;28;20214;-86
2022/08/05 00:16:11;;;;;;;4.63;2.58;;;22.00;99.90;;;;;;4974474;28;20207;-86
2022/08/05 00:18:38;;;;;;;5.22;2.92;;;22.00;99.90;;;;;;4960204;28;20208;-87
2022/08/05 00:21:05;;;;;;;4.13;2.70;;;22.00;99.90;;;;;;4972879;28;20188;-88
2022/08/05 00:23:31;;;;;;;4.93;2.47;;;21.90;99.90;;;;;;4996667;28;20557;-86
2022/08/05 00:25:56;;;;;;;4.50;2.83;;;21.90;99.90;;;;;;4978943;28;20653;-88
2022/08/05 00:28:22;;;;;;;4.95;2.95;;;21.80;99.90;;;;;;4997264;28;20615;-89
2022/08/05 00:30:48;;;;;;;6.60;2.63;;;21.70;99.90;;;;;;4979899;28;20186;-86
2022/08/05 00:33:16;;;;;;;5.75;2.65;;;21.70;99.90;;;;;;4980463;28;20187;-86
2022/08/05 00:35:41;;;;;;;4.30;2.67;;;21.50;99.90;;;;;;4979383;28;20253;-87
2022/08/05 00:38:07;;;;;;;4.82;2.50;;;21.60;99.90;;;;;;4997321;28;20215;-86
2022/08/05 00:40:33;;;;;;;10.10;3.38;;;21.70;99.90;;;;;;4996722;28;20188;-89
2022/08/05 00:43:01;;;;;;;4.90;2.80;;;21.70;99.90;;;;;;4980016;28;20184;-90
2022/08/05 00:45:28;;;;;;;4.47;2.40;;;21.80;99.90;;;;;;4979870;28;20701;-89
2022/08/05 00:47:54;;;;;;;5.63;2.70;;;21.80;99.90;;;;;;4979989;28;20186;-91
2022/08/05 00:50:19;;;;;;;6.45;2.60;;;21.80;99.90;;;;;;4980476;28;20266;-91
2022/08/05 00:52:46;;;;;;;5.47;2.60;;;21.80;99.90;;;;;;4980360;28;20521;-92
2022/08/05 00:55:12;;;;;;;7.03;2.67;;;21.80;99.90;;;;;;4979917;28;20176;-93
2022/08/05 00:57:37;;;;;;;5.38;2.75;;;21.80;99.90;;;;;;4980238;28;20180;-92
2022/08/05 01:00:05;;;;;;;5.57;2.50;;;21.70;99.90;;;;;;4979965;28;20184;-93
2022/08/05 01:02:32;;;;;;;5.28;2.63;;;21.70;99.90;;;;;;4978440;28;20188;-93
2022/08/05 01:04:58;;;;;;;6.45;2.85;;;21.60;99.90;;;;;;4978576;28;20187;-93
2022/08/05 01:07:23;;;;;;;8.70;2.70;;;21.50;99.90;;;;;;4960612;28;20177;-92
2022/08/05 01:09:49;;;;;;;3.30;2.50;;;21.50;99.90;;;;;;4960697;28;20188;-93
2022/08/05 01:12:20;;;;;;;4.88;2.72;;;21.40;99.90;;;;;;4963255;28;20185;-90
2022/08/05 01:15:09;;;;;;;6.10;2.90;;;21.30;99.90;;;;;;4960454;28;20690;-90
2022/08/05 01:18:03;;;;;;;5.75;2.75;;;21.20;99.90;;;;;;4960232;28;20212;-90
2022/08/05 01:20:59;;;;;;;7.95;2.55;;;21.20;99.90;;;;;;4960486;28;20284;-92
2022/08/05 01:23:37;;;;;;;5.80;2.60;;;21.20;99.90;;;;;;4960650;28;20187;-91
2022/08/05 01:26:25;;;;;;;5.47;2.50;;;21.30;99.90;;;;;;4976164;28;20181;-93
2022/08/05 01:28:57;;;;;;;5.20;2.75;;;21.30;99.90;;;;;;5395915;23;20235;-88
2022/08/05 01:31:42;;;;;;;4.47;2.88;;;21.30;99.90;;;;;;4996163;28;20212;-90
2022/08/05 01:34:17;;;;;;;7.07;3.22;;;21.40;99.90;;;;;;4996617;28;20191;-89
2022/08/05 01:36:48;;;;;;;6.93;3.33;;;21.30;99.90;;;;;;4978870;28;20269;-88
2022/08/05 01:39:15;;;;;;;7.32;3.38;;;21.30;99.90;;;;;;4979103;28;20210;-89
2022/08/05 01:41:46;;;;;;;7.75;3.60;;;21.10;99.90;;;;;;4995981;28;20180;-90
2022/08/05 01:44:13;;;;;;;7.70;3.47;;;21.10;99.90;;;;;;4978835;28;20580;-89
2022/08/05 01:46:41;;;;;;;8.07;3.55;;;21.00;99.90;;;;;;4979039;28;20194;-88
2022/08/05 01:49:10;;;;;;;5.65;3.50;;;21.00;99.90;;;;;;4978266;28;20281;-86
2022/08/05 01:51:38;;;;;;;9.77;3.63;;;20.90;99.90;;;;;;4978736;28;20176;-86
2022/08/05 01:54:07;;;;;;;6.68;3.42;;;20.90;99.90;;;;;;4978481;28;20180;-87
2022/08/05 01:56:38;;;;;;;6.55;3.97;;;20.90;99.90;;;;;;4979447;28;20622;-88
2022/08/05 01:59:08;;;;;;;4.68;3.55;;;20.90;99.90;;;;;;4978712;28;20220;-85
2022/08/05 02:01:36;;;;;;;8.10;3.80;;;20.90;99.90;;;;;;4979369;28;20172;-86
2022/08/05 02:04:03;;;;;;;7.82;3.72;;;20.70;99.90;;;;;;4978716;28;20234;-86
2022/08/05 02:06:30;;;;;;;5.90;3.60;;;20.70;99.90;;;;;;4978198;28;20526;-86
2022/08/05 02:08:56;;;;;;;10.20;4.13;;;20.70;99.90;;;;;;4979253;28;20179;-88
2022/08/05 02:11:22;;;;;;;8.18;3.50;;;20.60;99.90;;;;;;4980072;28;20562;-86
2022/08/05 02:14:04;;;;;;;12.30;3.55;;;20.60;99.90;;;;;;4978769;28;20176;-87
2022/08/05 02:16:43;;;;;;;7.45;3.40;;;20.60;99.90;;;;;;4979365;28;20180;-89
2022/08/05 02:19:33;;;;;;;7.25;3.35;;;20.70;99.90;;;;;;4980996;28;20276;-88
2022/08/05 02:22:30;;;;;;;4.80;3.70;;;20.80;99.90;;;;;;4997991;28;20629;-88
2022/08/05 02:25:15;;;;;;;10.13;3.50;;;20.70;99.90;;;;;;4964053;28;20623;-88
2022/08/05 02:27:41;;;;;;;12.18;4.00;;;20.70;99.90;;;;;;4979900;28;20184;-87
2022/08/05 02:30:11;;;;;;;7.72;3.88;;;20.70;99.90;;;;;;4979991;28;20231;-87
2022/08/05 02:32:39;;;;;;;9.85;3.92;;;20.70;99.90;;;;;;4971271;28;20231;-88
2022/08/05 02:35:14;;;;;;;8.75;4.07;;;20.70;99.90;;;;;;4961812;28;20181;-86
2022/08/05 02:37:42;;;;;;;6.10;3.55;;;20.60;99.90;;;;;;4969929;28;20188;-87
2022/08/05 02:40:09;;;;;;;6.75;3.60;;;20.60;99.90;;;;;;4976133;28;20194;-87
2022/08/05 02:42:36;;;;;;;8.57;3.75;;;20.60;99.90;;;;;;4973003;28;20184;-87
2022/08/05 02:45:03;;;;;;;6.63;3.88;;;20.60;99.90;;;;;;4986090;28;20183;-88
2022/08/05 02:47:31;;;;;;;5.35;3.80;;;20.60;99.90;;;;;;4974209;28;20185;-87
2022/08/05 02:49:58;;;;;;;5.85;3.78;;;20.60;99.90;;;;;;4983621;28;20633;-87
2022/08/05 02:52:25;;;;;;;7.25;3.70;;;20.60;99.90;;;;;;4961929;28;20654;-85
2022/08/05 02:54:52;;;;;;;7.60;3.53;;;20.70;99.90;;;;;;4969107;28;20634;-86
2022/08/05 02:57:20;;;;;;;8.02;4.30;;;20.70;99.90;;;;;;4977625;28;20179;-86
2022/08/05 02:59:48;;;;;;;6.95;3.67;;;20.70;99.90;;;;;;4986541;28;20246;-87
2022/08/05 03:02:21;;;;;;;6.55;3.63;;;20.70;99.90;;;;;;4969605;28;20186;-86
2022/08/05 03:04:49;;;;;;;9.10;4.00;;;20.70;99.90;;;;;;4994946;28;20188;-86
2022/08/05 03:07:16;;;;;;;7.38;4.10;;;20.80;99.90;;;;;;4979538;28;20183;-86
2022/08/05 03:09:43;;;;;;;6.68;3.67;;;20.80;99.90;;;;;;4975105;28;21214;-85
2022/08/05 03:12:09;;;;;;;8.70;4.07;;;20.80;99.90;;;;;;4983579;28;20184;-86
2022/08/05 03:14:35;;;;;;;9.50;4.78;;;20.80;99.90;;;;;;4973764;28;20190;-83
2022/08/05 03:17:00;;;;;;;8.13;4.13;;;20.90;99.90;;;;;;4976892;28;20183;-84
2022/08/05 03:19:26;;;;;;;6.82;4.25;;;20.90;99.90;;;;;;4976704;28;20274;-83
2022/08/05 03:21:53;;;;;;;9.55;4.93;;;20.90;99.90;;;;;;4963636;28;20572;-87
2022/08/05 03:24:19;;;;;;;8.85;4.72;;;20.90;99.90;;;;;;4957491;28;20181;-86
2022/08/05 03:26:45;;;;;;;8.93;4.85;;;20.80;99.90;;;;;;4960077;28;20176;-87
2022/08/05 03:29:11;;;;;;;13.23;4.78;;;20.80;99.90;;;;;;4975839;28;20238;-85
2022/08/05 03:31:38;;;;;;;9.95;5.15;;;20.80;99.90;;;;;;4998471;28;20255;-86
2022/08/05 03:34:04;;;;;;;11.70;4.72;;;20.80;99.90;;;;;;4980283;28;20742;-86
2022/08/05 03:36:31;;;;;;;9.82;4.93;;;20.80;99.90;;;;;;4998114;28;20259;-87
2022/08/05 03:38:57;;;;;;;11.80;5.00;;;20.80;99.90;;;;;;4981158;28;20220;-85
2022/08/05 03:41:24;;;;;;;10.80;4.60;;;20.80;99.90;;;;;;4998243;28;20646;-87
2022/08/05 03:43:49;;;;;;;9.73;5.03;;;20.80;99.90;;;;;;4981067;28;20183;-90
2022/08/05 03:46:15;;;;;;;11.07;4.53;;;20.70;99.90;;;;;;4983901;28;20238;-92
2022/08/05 03:48:40;;;;;;;8.30;5.57;;;20.70;99.90;;;;;;4981716;28;20665;-89
2022/08/05 03:51:14;;;;;;;12.18;5.38;;;20.60;99.90;;;;;;4981385;28;20179;-92
2022/08/05 03:53:56;;;;;;;10.18;5.22;;;20.60;99.90;;;;;;4981185;28;20183;-88
2022/08/05 03:56:35;;;;;;;12.23;5.65;;;20.60;99.90;;;;;;4980906;28;20262;-90
2022/08/05 03:59:08;;;;;;;13.63;5.93;;;20.50;99.90;;;;;;4980610;28;20211;-88
2022/08/05 04:01:38;;;;;;;9.35;5.13;;;20.50;99.90;;;;;;4981137;28;20192;-93
2022/08/05 04:04:05;;;;;;;11.32;5.63;;;20.50;99.90;;;;;;4961640;28;20177;-88
2022/08/05 04:06:33;;;;;;;10.45;5.40;;;20.60;99.90;;;;;;4960966;28;20216;-86
2022/08/05 04:09:01;;;;;;;10.80;5.60;;;20.50;99.90;;;;;;4965498;28;20180;-88
2022/08/05 04:11:27;;;;;;;13.23;6.07;;;20.60;99.90;;;;;;4980065;28;20293;-89
2022/08/05 04:13:54;;;;;;;14.38;5.90;;;20.50;99.90;;;;;;4980995;28;20639;-88
2022/08/05 04:16:20;;;;;;;8.55;5.57;;;20.50;99.90;;;;;;4964431;28;20222;-87
2022/08/05 04:18:45;;;;;;;10.15;5.97;;;20.40;99.90;;;;;;4998005;28;20212;-89
2022/08/05 04:21:12;;;;;;;9.85;5.65;;;20.40;99.90;;;;;;4980760;28;20278;-91
2022/08/05 04:23:38;;;;;;;9.98;6.50;;;20.30;99.90;;;;;;4980638;28;20203;-88
2022/08/05 04:26:04;;;;;;;8.20;5.47;;;20.40;99.90;;;;;;4980499;28;20206;-88
2022/08/05 04:28:30;;;;;;;9.88;5.60;;;20.30;99.90;;;;;;4979885;28;20183;-86
2022/08/05 04:30:56;;;;;;;11.30;6.57;;;20.30;99.90;;;;;;4979336;28;20247;-88
2022/08/05 04:33:22;;;;;;;11.57;5.82;;;20.40;99.90;;;;;;4979292;28;20222;-85
2022/08/05 04:35:47;;;;;;;13.95;6.22;;;20.40;99.90;;;;;;4979183;28;20176;-84
2022/08/05 04:38:13;;;;;;;10.43;5.45;;;20.40;99.90;;;;;;4960479;28;20216;-83
2022/08/05 04:40:40;;;;;;;12.15;5.82;;;20.30;99.90;;;;;;4982527;28;20374;-83
2022/08/05 04:43:06;;;;;;;11.93;5.68;;;20.30;99.90;;;;;;4978286;28;20266;-82
2022/08/05 04:45:32;;;;;;;11.52;5.82;;;20.30;99.90;;;;;;4996457;28;20156;-83
2022/08/05 04:48:12;;;;;;;13.73;5.57;;;20.40;99.90;;;;;;4997655;28;20184;-87
2022/08/05 04:50:45;;;;;;;8.15;5.22;;;20.30;99.90;;;;;;4983779;28;20172;-94
2022/08/05 04:53:17;;;;;;;10.77;5.68;;;20.30;99.90;;;;;;4980292;28;20164;-95
2022/08/05 04:55:44;;;;;;;14.35;5.50;;;20.40;99.90;;;;;;4997098;28;20168;-96
2022/08/05 04:58:12;;;;;;;9.68;5.57;;;20.30;99.90;;;;;;5000613;28;20219;-90
2022/08/05 05:00:39;;;;;;;8.98;5.57;;;20.30;99.90;;;;;;4980019;28;20251;-94
2022/08/05 05:03:11;;;;;;;10.73;5.57;;;20.30;99.90;;;;;;4980652;28;20224;-90
2022/08/05 05:05:37;;;;;;;13.25;5.70;;;20.30;99.90;;;;;;4981168;28;20176;-91
2022/08/05 05:08:06;;;;;;;9.77;5.25;;;20.20;99.90;;;;;;4998724;28;20172;-95
2022/08/05 05:10:43;;;;;;;7.72;5.13;;;20.20;99.90;;;;;;4997708;28;20206;-96
2022/08/05 05:13:13;;;;;;;8.30;5.00;;;20.20;99.90;;;;;;4996965;28;20175;-91
2022/08/05 05:15:41;;;;;;;6.53;4.90;;;20.20;99.90;;;;;;4996721;28;20222;-92
2022/08/05 05:18:07;;;;;;;10.85;5.50;;;20.20;99.90;;;;;;4996801;28;20207;-90
2022/08/05 05:20:33;;;;;;;12.82;5.05;;;20.30;99.90;;;;;;4979599;28;20211;-93
2022/08/05 05:23:03;;;;;;;6.85;5.03;;;20.30;99.90;;;;;;4979245;28;20183;-90
2022/08/05 05:25:29;;;;;;;9.02;5.40;;;20.40;99.90;;;;;;4979386;28;20176;-89
2022/08/05 05:27:54;;;;;;;7.45;5.07;;;20.30;99.90;;;;;;4995971;28;20278;-93
2022/08/05 05:30:21;;;;;;;10.48;5.55;;;20.20;99.90;;;;;;4979180;28;20265;-91
2022/08/05 05:32:48;;;;;;;9.15;5.22;;;20.20;99.90;;;;;;4979641;28;20625;-91
2022/08/05 05:35:15;;;;;;;8.30;4.93;;;20.20;99.90;;;;;;4979763;28;20180;-95
2022/08/05 05:37:48;;;;;;;10.63;4.38;;;20.30;99.90;;;;;;4980328;28;20530;-96
2022/08/05 05:40:15;;;;;;;9.95;5.22;;;20.30;99.90;;;;;;4993698;28;20180;-95
2022/08/05 05:42:48;;;;;;;7.45;4.43;;;20.30;99.90;;;;;;4989781;28;20209;-96
2022/08/05 05:45:14;;;;;;;9.07;4.93;;;20.30;99.90;;;;;;4981099;28;20180;-90
2022/08/05 05:47:41;;;;;;;10.05;5.35;;;20.20;99.90;;;;;;4980605;28;20184;-88
2022/08/05 05:50:13;;;;;;;9.52;5.32;;;20.20;99.90;;;;;;4997076;28;20251;-89
2022/08/05 05:52:42;;;;;;;9.10;5.43;;;20.10;99.90;;;;;;4962389;28;20235;-95
2022/08/05 05:55:10;;;;;;;8.35;5.22;;;20.10;99.90;;;;;;4960851;28;20180;-91
2022/08/05 05:57:37;;;;;;;11.55;5.88;;;20.20;99.90;;;;;;4971811;28;20188;-90
2022/08/05 06:00:09;;;;;;;9.07;6.13;;;20.10;99.90;;;;;;4980467;28;20267;-90
2022/08/05 06:02:35;;;;;;;12.60;7.32;;;20.10;99.90;;;;;;4979717;28;20207;-90
2022/08/05 06:05:01;;;;;;;9.50;6.55;;;20.20;99.90;;;;;;4974659;28;20187;-89
2022/08/05 06:07:27;;;;;;;8.43;5.97;;;20.30;99.90;;;;;;4985074;28;20172;-93
2022/08/05 06:09:52;;;;;;;7.40;5.38;;;20.40;99.90;;;;;;4965640;28;20191;-93
2022/08/05 06:12:18;;;;;;;12.00;6.05;;;20.50;99.90;;;;;;4963582;28;20188;-93
2022/08/05 06:14:45;;;;;;;10.70;6.25;;;20.70;99.90;;;;;;4960107;28;20176;-89
2022/08/05 06:17:12;;;;;;;9.88;5.32;;;20.80;99.90;;;;;;4977542;28;20584;-94
2022/08/05 06:19:38;;;;;;;7.75;5.70;;;20.70;99.90;;;;;;4978359;28;20220;-88
2022/08/05 06:22:04;;;;;;;9.23;5.68;;;20.70;99.90;;;;;;4979611;28;20179;-88
2022/08/05 06:24:31;;;;;;;9.10;5.88;;;20.70;99.90;;;;;;4978076;28;20258;-87
2022/08/05 06:26:57;;;;;;;9.50;6.07;;;20.60;99.90;;;;;;4993847;28;20196;-86
2022/08/05 06:29:23;;;;;;;10.48;6.47;;;20.60;99.90;;;;;;4955097;29;20307;-87
2022/08/05 06:31:49;;;;;;;10.70;6.07;;;20.70;99.90;;;;;;4955485;28;20300;-91
2022/08/05 06:34:16;;;;;;;11.48;6.30;;;20.70;99.90;;;;;;4975262;28;20615;-91
2022/08/05 06:36:41;;;;;;;12.85;6.05;;;20.70;99.90;;;;;;4962465;28;20193;-86
2022/08/05 06:39:07;;;;;;;7.35;5.55;;;20.80;99.90;;;;;;4975138;28;20255;-89
2022/08/05 06:41:33;;;;;;;13.15;5.75;;;20.80;99.90;;;;;;4974595;28;20600;-85
2022/08/05 06:44:00;;;;;;;7.03;5.45;;;20.80;99.90;;;;;;4974503;28;20177;-90
2022/08/05 06:46:26;;;;;;;9.32;5.65;;;20.80;99.90;;;;;;4974725;28;20323;-87
2022/08/05 06:48:52;;;;;;;9.23;5.55;;;20.70;99.90;;;;;;4975070;28;20208;-88
2022/08/05 06:51:17;;;;;;;7.57;5.28;;;20.70;99.90;;;;;;4973529;28;20517;-86
2022/08/05 06:53:43;;;;;;;10.27;5.80;;;20.70;99.90;;;;;;4974484;28;20646;-89
2022/08/05 06:56:09;;;;;;;11.05;6.32;;;20.60;99.90;;;;;;4974114;28;20639;-89
2022/08/05 06:58:34;;;;;;;8.30;6.07;;;20.60;99.90;;;;;;4974880;28;20243;-87
2022/08/05 07:01:00;;;;;;;10.43;6.18;;;20.50;99.90;;;;;;4971467;28;20203;-88
2022/08/05 07:03:27;;;;;;;11.60;6.25;;;20.50;99.90;;;;;;4978016;28;20216;-85
2022/08/05 07:05:53;;;;;;;12.18;6.35;;;20.40;99.90;;;;;;4977171;28;20180;-84
2022/08/05 07:08:21;;;;;;;10.13;6.57;;;20.40;99.90;;;;;;4971438;28;20181;-83
2022/08/05 07:10:47;;;;;;;11.38;6.53;;;20.40;99.90;;;;;;4970648;28;20611;-84
2022/08/05 07:18:41;;;;;;;12.30;6.90;;;20.10;99.90;;;;;;4976883;28;20263;-83
2022/08/05 07:21:07;;;;;;;14.35;7.85;;;20.10;99.90;;;;;;4973414;28;20204;-85
2022/08/05 07:23:34;;;;;;;9.55;7.35;;;20.10;99.90;;;;;;4975891;28;20619;-86
2022/08/05 07:25:59;;;;;;;9.95;6.95;;;20.10;99.90;;;;;;4977038;28;20699;-85
2022/08/05 07:28:25;;;;;;;13.57;7.80;;;20.10;99.90;;;;;;4976019;28;20272;-84
2022/08/05 07:30:51;;;;;;;10.77;7.68;;;20.00;99.90;;;;;;4996098;28;20266;-85
2022/08/05 07:33:19;;;;;;;14.80;8.02;;;20.10;99.90;;;;;;4980435;28;20558;-88
2022/08/05 07:35:45;;;;;;;13.07;7.82;;;20.00;99.90;;;;;;4998112;28;20171;-87
2022/08/05 07:38:11;;;;;;;10.98;7.50;;;20.10;99.90;;;;;;4978426;28;20215;-88
2022/08/05 07:40:36;;;;;;;9.85;7.15;;;20.10;99.90;;;;;;4983699;28;20202;-88
2022/08/05 07:43:02;;;;;;;14.10;7.85;;;20.10;99.90;;;;;;4980912;28;20230;-88
2022/08/05 07:45:28;;;;;;;12.75;7.60;;;20.20;99.90;;;;;;4980872;28;20184;-89
2022/08/05 07:47:54;;;;;;;10.35;6.55;;;20.30;99.90;;;;;;4981207;28;20175;-90
2022/08/05 07:50:19;;;;;;;10.48;8.02;;;20.30;99.90;;;;;;4980908;28;20180;-91
2022/08/05 07:52:45;;;;;;;11.63;7.53;;;20.30;99.90;;;;;;4981304;28;20183;-89
2022/08/05 07:55:15;;;;;;;13.07;8.23;;;20.40;99.90;;;;;;4981126;28;20186;-92
2022/08/05 07:57:41;;;;;;;13.38;8.07;;;20.40;99.90;;;;;;4980556;28;20670;-88
2022/08/05 08:00:07;;;;;;;13.02;8.25;;;20.40;99.90;;;;;;4982191;28;20265;-89
2022/08/05 08:02:33;;;;;;;12.20;7.63;;;20.40;99.90;;;;;;4981357;28;20207;-92
2022/08/05 08:05:06;;;;;;;14.82;8.52;;;20.50;99.90;;;;;;4981277;28;20183;-92
2022/08/05 08:07:35;;;;;;;13.43;7.90;;;20.50;99.90;;;;;;4978814;28;20257;-88
2022/08/05 08:10:01;;;;;;;15.15;9.20;;;20.50;99.90;;;;;;4960997;28;20180;-85
2022/08/05 08:12:26;;;;;;;16.08;9.68;;;20.60;99.90;;;;;;4978574;28;20180;-88
2022/08/05 08:14:53;;;;;;;11.68;8.32;;;20.60;99.90;;;;;;4979815;28;20195;-89
2022/08/05 08:17:19;;;;;;;15.38;8.07;;;20.70;99.90;;;;;;4980782;28;20179;-88
2022/08/05 08:19:45;;;;;;;13.63;8.52;;;20.80;99.90;;;;;;4980361;28;20212;-88
2022/08/05 08:22:11;;;;;;;11.40;8.02;;;20.70;99.90;;;;;;4993930;28;20180;-90
2022/08/05 08:24:45;;;;;;;13.05;7.28;;;20.70;99.90;;;;;;4978813;28;20259;-94
2022/08/05 08:27:11;;;;;;;12.43;7.40;;;20.70;99.90;;;;;;4961385;28;20184;-93
2022/08/05 08:29:36;;;;;;;14.82;7.78;;;20.70;99.90;;;;;;4971247;28;20228;-95
2022/08/05 08:32:02;;;;;;;11.35;7.18;;;20.70;99.90;;;;;;4998167;28;20602;-94
2022/08/05 08:34:30;;;;;;;14.75;8.43;;;20.80;99.90;;;;;;4980472;28;20515;-95
2022/08/05 08:36:56;;;;;;;10.38;7.70;;;20.90;99.90;;;;;;4980930;28;20187;-90
2022/08/05 08:39:23;;;;;;;9.98;6.50;;;21.00;99.90;;;;;;4980522;28;20207;-91
2022/08/05 08:41:50;;;;;;;10.45;7.55;;;21.00;99.90;;;;;;4980330;28;20194;-90
2022/08/05 08:44:17;;;;;;;12.55;7.32;;;21.00;99.90;;;;;;4979873;28;20199;-91
2022/08/05 08:46:44;;;;;;;12.77;7.88;;;21.00;99.90;;;;;;4979854;28;20204;-91
2022/08/05 08:49:13;;;;;;;13.38;7.90;;;21.00;99.90;;;;;;4997764;28;20183;-90
2022/08/05 08:51:40;;;;;;;10.60;7.32;;;21.00;99.90;;;;;;4979306;28;20180;-90
2022/08/05 08:54:06;;;;;;;10.63;6.80;;;21.10;99.90;;;;;;4980014;28;20183;-90
2022/08/05 08:56:32;;;;;;;11.73;6.80;;;21.20;99.90;;;;;;4968812;28;20631;-87
2022/08/05 08:58:59;;;;;;;12.52;7.60;;;21.30;99.90;;;;;;4975432;28;20700;-88
2022/08/05 09:01:25;;;;;;;11.32;6.90;;;21.30;99.90;;;;;;4988672;28;20223;-89
2022/08/05 09:03:53;;;;;;;12.00;7.15;;;21.30;99.90;;;;;;4963201;28;20203;-87
2022/08/05 09:06:21;;;;;;;9.00;6.70;;;21.30;99.90;;;;;;4979564;28;20255;-88
2022/08/05 09:08:47;;;;;;;13.05;7.57;;;21.30;99.90;;;;;;4959310;28;20203;-88
2022/08/05 09:11:13;;;;;;;8.25;5.95;;;21.30;99.90;;;;;;4969598;28;20622;-86
2022/08/05 09:13:41;;;;;;;8.68;5.93;;;21.30;99.90;;;;;;4995605;28;20194;-87
2022/08/05 09:16:10;;;;;;;8.90;6.43;;;21.40;99.90;;;;;;4978942;28;20183;-86
2022/08/05 09:18:36;;;;;;;9.20;6.68;;;21.50;99.90;;;;;;4979020;28;20266;-87
2022/08/05 09:21:03;;;;;;;10.27;6.80;;;21.50;99.90;;;;;;4995968;28;20509;-88
2022/08/05 09:23:29;;;;;;;9.18;6.40;;;21.40;99.90;;;;;;4994928;28;20641;-85
2022/08/05 09:26:18;;;;;;;10.02;7.05;;;21.30;99.90;;;;;;4978315;28;20175;-85
2022/08/05 09:28:47;;;;;;;7.93;6.47;;;21.20;99.90;;;;;;4995161;28;20156;-85
2022/08/05 09:31:14;;;;;;;9.82;7.07;;;21.20;99.90;;;;;;4978271;28;20697;-86
2022/08/05 09:33:46;;;;;;;9.32;6.40;;;21.10;99.90;;;;;;4978073;28;20287;-86
2022/08/05 09:36:12;;;;;;;8.18;6.72;;;21.00;99.90;;;;;;4978090;28;20218;-85
2022/08/05 09:38:37;;;;;;;9.77;6.63;;;20.90;99.90;;;;;;4994814;28;20295;-87
2022/08/05 09:41:06;;;;;;;10.80;6.95;;;20.90;99.90;;;;;;4995598;28;20518;-86
2022/08/05 09:43:37;;;;;;;9.00;5.95;;;20.80;99.90;;;;;;4977546;28;20184;-88
2022/08/05 09:46:30;;;;;;;7.80;6.30;;;20.90;99.90;;;;;;5071353;28;20555;-86
2022/08/05 09:48:57;;;;;;;8.13;5.68;;;21.00;99.90;;;;;;5069579;28;20228;-83
2022/08/05 09:51:40;;;;;;;10.07;6.70;;;21.00;99.90;;;;;;5030033;28;20265;-84
2022/08/05 09:54:07;;;;;;;7.88;6.13;;;21.00;99.90;;;;;;5038556;28;20620;-84
2022/08/05 09:56:38;;;;;;;7.95;5.97;;;21.00;99.90;;;;;;5050908;28;20601;-85
2022/08/05 09:59:06;;;;;;;10.20;6.50;;;20.90;99.90;;;;;;5050951;28;20162;-84
2022/08/05 10:01:35;;;;;;;7.95;5.40;;;21.00;99.90;;;;;;5050989;28;20198;-84
2022/08/05 10:04:07;;;;;;;8.30;5.97;;;21.00;99.90;;;;;;5049552;28;20590;-84
2022/08/05 10:06:33;;;;;;;10.27;6.32;;;21.10;99.90;;;;;;5049288;28;20193;-82
2022/08/05 10:09:16;;;;;;;7.32;5.25;;;21.10;99.90;;;;;;5050799;28;20245;-83
2022/08/05 10:11:43;;;;;;;8.15;6.00;;;21.20;99.90;;;;;;5050831;28;20264;-82
2022/08/05 10:14:22;;;;;;;6.63;5.32;;;21.30;99.90;;;;;;5050259;28;20280;-82
2022/08/05 10:16:49;;;;;;;6.82;5.20;;;21.20;99.90;;;;;;5050447;28;20703;-82
2022/08/05 10:19:15;;;;;;;11.70;5.35;;;21.30;99.90;;;;;;5049504;28;20178;-83
2022/08/05 10:21:41;;;;;;;6.90;5.03;;;21.20;99.90;;;;;;5050729;28;20220;-82
2022/08/05 10:24:13;;;;;;;7.18;5.50;;;21.30;99.90;;;;;;5049001;28;20201;-82
2022/08/05 10:26:42;;;;;;;6.60;4.90;;;21.20;99.90;;;;;;5050692;28;20166;-83
2022/08/05 10:29:08;;;;;;;6.75;4.43;;;21.20;99.90;;;;;;5049884;28;20547;-82
2022/08/05 10:31:33;;;;;;;7.18;4.70;;;21.30;99.90;;;;;;5049307;28;20177;-86
2022/08/05 10:33:59;;;;;;;5.15;3.85;;;21.30;99.90;;;;;;5051303;28;20171;-83
2022/08/05 10:36:25;;;;;;;6.00;4.70;;;21.40;99.90;;;;;;5049201;28;20186;-82
2022/08/05 10:38:59;;;;;;;5.72;4.13;;;21.40;99.90;;;;;;5050308;28;20166;-82
2022/08/05 10:41:41;;;;;;;5.15;3.80;;;21.40;99.90;;;;;;5048995;28;20273;-82
2022/08/05 10:44:11;;;;;;;5.15;3.55;;;21.40;99.90;;;;;;5047593;28;20198;-82
2022/08/05 10:46:52;;;;;;;3.80;3.00;;;21.40;99.90;;;;;;5049728;28;20186;-83
2022/08/05 10:49:19;;;;;;;3.83;3.35;;;21.40;99.90;;;;;;5068738;28;20177;-82
2022/08/05 10:51:56;;;;;;;4.13;3.20;;;21.30;99.90;;;;;;5062980;28;20178;-82
2022/08/05 10:54:22;;;;;;;5.43;3.35;;;21.20;99.90;;;;;;5048709;28;20568;-82
2022/08/05 10:56:50;;;;;;;4.20;3.33;;;21.20;99.90;;;;;;5039118;28;20194;-82
2022/08/05 10:59:26;;;;;;;4.93;3.13;;;21.10;99.90;;;;;;5035755;28;20186;-83
2022/08/05 11:02:09;;;;;;;5.07;3.20;;;21.00;99.90;;;;;;5035280;28;20213;-82
2022/08/05 11:04:46;;;;;;;4.68;3.22;;;21.00;99.90;;;;;;5036279;28;20543;-81
2022/08/05 11:07:15;;;;;;;4.55;3.30;;;21.00;99.90;;;;;;5035268;28;20198;-84
2022/08/05 11:09:51;;;;;;;3.85;3.05;;;21.00;99.90;;;;;;5035196;28;20178;-81
2022/08/05 11:12:40;;;;;;;4.65;3.20;;;20.90;99.90;;;;;;5036307;28;20501;-82
2022/08/05 11:15:14;;;;;;;4.85;3.50;;;21.00;99.90;;;;;;5034988;28;20201;-82
2022/08/05 11:17:41;;;;;;;5.15;3.60;;;21.00;99.90;;;;;;5034809;28;20515;-81
2022/08/05 11:20:27;;;;;;;6.22;3.72;;;21.00;99.90;;;;;;5034553;28;20255;-81
2022/08/05 11:22:53;;;;;;;4.18;3.40;;;21.10;99.90;;;;;;5034742;28;20179;-81
2022/08/05 11:25:28;;;;;;;5.55;3.90;;;21.10;99.90;;;;;;5035861;28;20206;-82
2022/08/05 11:27:55;;;;;;;6.35;4.18;;;21.20;99.90;;;;;;5034873;28;20178;-81
2022/08/05 11:30:21;;;;;;;6.15;4.30;;;21.20;99.90;;;;;;5054795;28;20185;-81
2022/08/05 11:32:47;;;;;;;4.05;3.65;;;21.20;99.90;;;;;;5054670;28;20174;-81
2022/08/05 11:35:51;;;;;;;5.18;3.90;;;21.20;99.90;;;;;;5055706;28;20268;-80
2022/08/05 11:38:17;;;;;;;6.93;4.35;;;21.20;99.90;;;;;;5039701;28;20225;-80
2022/08/05 11:40:58;;;;;;;4.85;4.13;;;21.20;99.90;;;;;;5048286;28;20218;-79
2022/08/05 11:43:23;;;;;;;5.00;4.03;;;21.20;99.90;;;;;;5033765;28;20186;-80
2022/08/05 11:45:49;;;;;;;5.38;4.20;;;21.00;99.90;;;;;;5034155;28;20234;-81
2022/08/05 11:48:15;;;;;;;5.93;4.45;;;21.00;99.90;;;;;;5022761;28;20223;-82
2022/08/05 11:50:41;;;;;;;8.25;4.50;;;20.90;99.90;;;;;;5045494;28;20220;-80
2022/08/05 11:53:07;;;;;;;6.28;4.85;;;20.90;99.90;;;;;;5034134;28;20182;-81
2022/08/05 11:55:33;;;;;;;6.03;4.82;;;20.80;99.90;;;;;;5030632;28;20242;-83
2022/08/05 11:57:58;;;;;;;4.85;4.18;;;20.70;99.90;;;;;;5054866;28;20174;-81
2022/08/05 12:00:29;;;;;;;5.20;4.13;;;20.60;99.90;;;;;;5054994;28;20212;-80
2022/08/05 12:02:54;;;;;;;4.05;3.42;;;20.60;99.90;;;;;;5052729;28;20186;-80
2022/08/05 12:05:28;;;;;;;4.28;3.35;;;20.50;99.90;;;;;;5053802;28;20217;-80
2022/08/05 12:07:57;;;;;;;5.57;4.30;;;20.40;99.90;;;;;;5053024;28;20203;-80
2022/08/05 12:10:26;;;;;;;5.75;4.35;;;20.30;99.90;;;;;;5050536;28;20186;-80
2022/08/05 12:12:52;;;;;;;5.97;4.35;;;20.10;99.90;;;;;;5035161;28;20668;-84
2022/08/05 12:15:22;;;;;;;6.13;4.78;;;20.00;99.90;;;;;;5053561;28;20184;-82
2022/08/05 12:17:48;;;;;;;5.40;4.05;;;19.90;99.90;;;;;;5055045;28;20232;-83
2022/08/05 12:20:13;;;;;;;4.78;3.10;;;19.80;99.90;;;;;;5053912;28;20203;-83
2022/08/05 12:22:39;;;;;;;4.43;2.65;;;19.60;99.90;;;;;;5053629;28;20256;-81
2022/08/05 12:25:06;;;;;;;3.95;3.17;;;19.50;99.90;;;;;;5054896;28;20209;-81
2022/08/05 12:27:32;;;;;;;7.32;2.90;;;19.40;99.90;;;;;;5053191;28;20240;-82
2022/08/05 12:30:06;;;;;;;7.45;2.88;;;19.40;99.90;;;;;;5054639;28;20601;-83
2022/08/05 12:32:34;;;;;;;3.60;2.38;;;19.30;99.90;;;;;;5040916;28;20214;-81
2022/08/05 12:35:01;;;;;;;3.50;2.45;;;19.20;99.90;;;;;;5034672;28;20185;-82
2022/08/05 12:37:28;;;;;;;2.75;2.15;;;19.20;99.90;;;;;;5033519;28;20624;-81
2022/08/05 12:39:56;;;;;;;3.75;1.65;;;19.20;99.90;;;;;;5035352;28;20600;-82
2022/08/05 12:42:22;;;;;;;5.68;2.40;;;19.20;99.90;;;;;;5042137;28;20186;-80
2022/08/05 12:44:48;;;;;;;4.32;1.70;;;19.10;99.90;;;;;;5034402;28;20222;-81
2022/08/05 12:47:34;;;;;;;3.47;1.90;;;19.10;99.90;;;;;;5034429;28;20179;-81
2022/08/05 12:50:15;;;;;;;2.65;1.55;;;19.10;99.90;;;;;;5032978;28;20210;-81
2022/08/05 12:52:41;;;;;;;4.85;1.77;;;19.10;99.90;;;;;;5033000;28;20174;-82
2022/08/05 12:55:36;;;;;;;3.30;1.73;;;19.10;99.90;;;;;;5033652;28;20647;-80
2022/08/05 12:58:02;;;;;;;1.92;1.55;;;19.00;99.90;;;;;;5053132;28;20194;-80